Wednesday, October 18, 2017, 6:07 PM EDT
Back to Local

KBAF, Westfield Barnes Municipal

Location: Westfield, MA, United States Lat: 42.167
Local Time: 6:07 PM EDT (22:07 GMT) Lon: -72.717
Time Zone: US/Eastern Elev: 272 ft

Show me the last for .
Show Decoded

2017-10-18 17:53 METAR KBAF 182153Z 24003KT 10SM CLR 20/07 A3023 RMK AO2 SLP238 T02000067 =
2017-10-18 16:53 METAR KBAF 182053Z 24009KT 10SM CLR 22/07 A3022 RMK AO2 SLP235 T02170072 55003 =
2017-10-18 15:53 METAR KBAF 181953Z 28006KT 10SM CLR 23/06 A3022 RMK AO2 SLP234 T02280061 =
2017-10-18 14:53 METAR KBAF 181853Z 27010KT 10SM CLR 23/05 A3022 RMK AO2 SLP235 T02330050 =
2017-10-18 13:53 METAR KBAF 181753Z 00000KT 10SM CLR 22/06 A3023 RMK AO2 SLP238 T02170061 10222
                 20022 58017 =
2017-10-18 12:53 METAR KBAF 181653Z 21007KT 10SM CLR 21/08 A3025 RMK AO2 SLP247 T02060078 =
2017-10-18 11:53 METAR KBAF 181553Z VRB05KT 10SM CLR 18/07 A3028 RMK AO2 SLP256 T01830067 =
2017-10-18 10:53 METAR KBAF 181453Z 19005KT 10SM CLR 16/06 A3028 RMK AO2 SLP256 T01610061 50003 =
2017-10-18 09:53 METAR KBAF 181353Z 22004KT 10SM CLR 11/04 A3028 RMK AO2 SLP259 T01060044 =
2017-10-18 08:53 METAR KBAF 181253Z 19005KT 10SM CLR 06/04 A3029 RMK AO2 SLP260 T00610039 =
2017-10-18 07:53 METAR KBAF 181153Z 00000KT 10SM CLR 02/02 A3027 RMK AO2 SLP256 T00220017 10033
                 20006 53015 =
2017-10-18 06:53 METAR KBAF 181053Z 21004KT 10SM CLR 01/01 A3025 RMK AO2 SLP249 T00110006 =
2017-10-18 05:53 METAR KBAF 180953Z AUTO 00000KT 10SM CLR 02/01 A3024 RMK AO2 SLP244 T00220011 =
2017-10-18 04:53 METAR KBAF 180853Z AUTO 22003KT 10SM CLR 01/01 A3023 RMK AO2 SLP239 T00110011
                 53002 =
2017-10-18 03:53 METAR KBAF 180753Z AUTO 15003KT 10SM CLR 01/01 A3021 RMK AO2 SLP234 T00110011 =
2017-10-18 02:53 METAR KBAF 180653Z AUTO 00000KT 10SM CLR 02/02 A3022 RMK AO2 SLP235 T00220017 =
2017-10-18 01:53 METAR KBAF 180553Z AUTO 00000KT 10SM CLR 03/02 A3022 RMK AO2 SLP236 T00330017
                 10061 20028 58005 =
2017-10-18 00:53 METAR KBAF 180453Z AUTO 00000KT 10SM CLR 04/02 A3023 RMK AO2 SLP240 T00390017
                 401441011 =
2017-10-17 23:53 METAR KBAF 180353Z AUTO 18005KT 10SM CLR 04/02 A3024 RMK AO2 SLP244 T00440017 =
2017-10-17 22:53 METAR KBAF 180253Z AUTO 19004KT 10SM CLR 04/02 A3024 RMK AO2 SLP243 T00440017
                 50003 =
2017-10-17 21:53 METAR KBAF 180153Z 19005KT 10SM CLR 04/02 A3024 RMK AO2 SLP246 T00440017 =
2017-10-17 20:53 METAR KBAF 180053Z 21005KT 10SM CLR 04/02 A3024 RMK AO2 SLP243 T00440017 =
2017-10-17 19:53 METAR KBAF 172353Z 18003KT 10SM CLR 06/01 A3023 RMK AO2 SLP241 T00610011 10144
                 20061 53008 =
2017-10-17 18:53 METAR KBAF 172253Z 19004KT 10SM CLR 08/01 A3021 RMK AO2 SLP236 T00830011 =

Support USWX by starting your Amazon purchase here.